Flight Track Log - Related Links

Times and Time Zones

All times are in EDT time to prevent confusion due to time zone crossing. See the SWA325 flight status page for this flight to view local times or setup timezone preferences in your user account.

Time Position Orientation Groundspeed Altitude Reporting Facility
EDT Latitude Longitude Course Direction KTS MPH feet Rate Location/Type
Wed 08:26:40 PM 30.1800 -97.7764 296° West 254 292 5,600  Level Houston Center
Wed 08:27:42 PM 30.2081 -97.8806 287° West 286 329 9,400 2,806 Climbing Houston Center
Wed 08:28:44 PM 30.2281 -97.9806 283° West 318 366 11,400 2,371 Climbing Houston Center
Wed 08:29:46 PM 30.2556 -98.1056 284° West 367 422 14,300 2,758 Climbing Houston Center
Wed 08:30:48 PM 30.2808 -98.2272 284° West 387 445 17,100 2,516 Climbing Houston Center
Wed 08:31:00 PM 30.4996 -98.3970 296° West  Level Estimated
Wed 08:31:50 PM 30.3075 -98.3581 283° West 403 464 19,500  Level Houston Center
Wed 08:32:51 PM 30.3331 -98.4861 283° West 419 482 22,000 2,293 Climbing Houston Center
Wed 08:33:53 PM 30.3603 -98.6200 283° West 423 487 24,200 2,032 Climbing Houston Center
Wed 08:34:55 PM 30.3875 -98.7575 283° West 432 497 26,200 1,790 Climbing Houston Center
Wed 08:35:57 PM 30.4181 -98.8986 284° West 445 512 27,900 871 Climbing Houston Center
Wed 08:36:59 PM 30.4500 -99.0406 285° West 450 518 28,000 48 Climbing Houston Center
Wed 08:38:01 PM 30.4856 -99.2053 284° West 448 516 28,000 -48 Level Houston Center
Wed 08:39:03 PM 30.5169 -99.3428 285° West 445 512 27,900 -49 Descending Houston Center
Wed 08:40:04 PM 30.5472 -99.4811 284° West 445 512 27,900  Level Houston Center
Wed 08:41:06 PM 30.5761 -99.6217 283° West 451 519 27,900  Level Houston Center
Wed 08:42:08 PM 30.6069 -99.7611 284° West 450 518 27,900  Level Houston Center
Wed 08:43:10 PM 30.6361 -99.9000 284° West 449 517 27,900 726 Level Houston Center
Wed 08:44:12 PM 30.6719 -100.0697 284° West 454 522 29,400 1,452 Climbing Houston Center
Wed 08:45:14 PM 30.7017 -100.2181 283° West 471 542 30,900 1,597 Climbing Houston Center
Wed 08:46:16 PM 30.7331 -100.3642 284° West 468 539 32,700 1,756 Climbing Houston Center
Wed 08:47:17 PM 30.7614 -100.5111 283° West 464 534 34,500 1,805 Climbing Houston Center
Wed 08:48:19 PM 30.7914 -100.6525 284° West 458 527 36,400 1,645 Climbing Houston Center
Wed 08:49:21 PM 30.8292 -100.8194 285° West 451 519 37,900 726 Climbing Houston Center
Wed 08:50:23 PM 30.8561 -100.9583 283° West 440 506 37,900  Level Houston Center
Wed 08:51:25 PM 30.8833 -101.0986 283° West 451 519 37,900  Level Houston Center
Wed 08:52:27 PM 30.9139 -101.2333 285° West 436 502 37,900  Level Houston Center
Wed 08:53:28 PM 30.9433 -101.3939 282° West 440 506 37,900  Level Houston Center
Wed 08:54:30 PM 30.9692 -101.5342 282° West 441 507 37,900  Level Houston Center
Wed 08:55:32 PM 30.9978 -101.6736 283° West 439 505 37,900  Level Houston Center
Wed 08:56:34 PM 31.0250 -101.8139 283° West 437 503 37,900  Level Houston Center
Wed 08:57:36 PM 31.0519 -101.9528 283° West 438 504 37,900  Level Houston Center
Wed 08:58:37 PM 31.0789 -102.0933 283° West 439 505 37,900 50 Level Houston Center
Wed 08:59:36 PM 31.1053 -102.2256 283° West 443 510 38,000 50 Climbing Albuquerque Center
Wed 09:00:37 PM 31.1372 -102.3942 283° West 443 510 38,000  Level Albuquerque Center
Wed 09:01:39 PM 31.1650 -102.5364 283° West 446 513 38,000 -48 Level Albuquerque Center
Wed 09:02:41 PM 31.1883 -102.6694 282° West 443 510 37,900 -48 Descending Albuquerque Center
Wed 09:03:43 PM 31.2153 -102.8111 283° West 445 512 37,900  Level Albuquerque Center
Wed 09:04:44 PM 31.2417 -102.9506 283° West 440 506 37,900  Level Albuquerque Center
Wed 09:05:46 PM 31.2728 -103.1181 282° West 441 507 37,900  Level Albuquerque Center
Wed 09:06:48 PM 31.2972 -103.2561 282° West 437 503 37,900  Level Albuquerque Center
Wed 09:07:49 PM 31.3222 -103.3939 282° West 435 501 37,900  Level Albuquerque Center
Wed 09:08:51 PM 31.3478 -103.5319 282° West 435 501 37,900  Level Albuquerque Center
Wed 09:09:53 PM 31.3725 -103.6678 282° West 430 495 37,900  Level Albuquerque Center
Wed 09:10:54 PM 31.3956 -103.7983 282° West 432 497 37,900  Level Albuquerque Center
Wed 09:11:56 PM 31.4250 -103.9622 282° West 432 497 37,900  Level Albuquerque Center
Wed 09:12:58 PM 31.4494 -104.0989 282° West 431 496 37,900  Level Albuquerque Center
Wed 09:14:00 PM 31.4750 -104.2367 282° West 434 499 37,900  Level Albuquerque Center
Wed 09:15:01 PM 31.4978 -104.3744 281° West 435 501 37,900  Level Albuquerque Center
Wed 09:16:03 PM 31.5225 -104.5128 282° West 436 502 37,900  Level Albuquerque Center
Wed 09:17:05 PM 31.5475 -104.6525 282° West 439 505 37,900  Level Albuquerque Center
Wed 09:18:06 PM 31.5753 -104.8200 281° West 440 506 37,900  Level Albuquerque Center
Wed 09:19:08 PM 31.5989 -104.9589 281° West 439 505 37,900  Level Albuquerque Center
Wed 09:20:10 PM 31.6239 -105.0992 282° West 441 507 37,900  Level Albuquerque Center
Wed 09:21:11 PM 31.6467 -105.2403 281° West 443 510 37,900  Level Albuquerque Center
Wed 09:22:13 PM 31.6414 -105.3836 268° West 448 516 37,900  Level Albuquerque Center
Wed 09:23:15 PM 31.6328 -105.5253 266° West 440 506 37,900  Level Albuquerque Center
Wed 09:24:16 PM 31.6233 -105.6944 266° West 436 502 37,900  Level Albuquerque Center
Wed 09:25:18 PM 31.6169 -105.8342 267° West 433 498 37,900  Level Albuquerque Center
Wed 09:26:20 PM 31.6092 -105.9750 266° West 435 501 37,900  Level Albuquerque Center
Wed 09:27:22 PM 31.6036 -106.1158 267° West 434 499 37,900  Level Albuquerque Center
Wed 09:28:23 PM 31.5956 -106.2550 266° West 432 497 37,900  Level Albuquerque Center
Wed 09:29:25 PM 31.5883 -106.3961 267° West 434 499 37,900  Level Albuquerque Center
Wed 09:30:26 PM 31.5819 -106.5372 267° West 434 499 37,900  Level Albuquerque Center
Wed 09:31:28 PM 31.5781 -106.6978 268° West 436 502 37,900  Level Albuquerque Center
Wed 09:32:30 PM 31.5839 -106.8408 273° West 437 503 37,900  Level Albuquerque Center
Wed 09:33:31 PM 31.6167 -106.9817 285° West 445 512 37,900  Level Albuquerque Center
Wed 09:34:33 PM 31.6633 -107.1169 292° West 446 513 37,900  Level Albuquerque Center
Wed 09:35:34 PM 31.7100 -107.2528 292° West 448 516 37,900  Level Albuquerque Center
Wed 09:36:36 PM 31.7656 -107.4167 292° West 447 514 37,900 48 Level Albuquerque Center
Wed 09:37:38 PM 31.8103 -107.5475 292° West 443 510 38,000 49 Climbing Albuquerque Center
Wed 09:38:39 PM 31.8539 -107.6808 291° West 442 509 38,000  Level Albuquerque Center
Wed 09:39:41 PM 31.8992 -107.8122 292° West 439 505 38,000 -48 Level Albuquerque Center
Wed 09:40:43 PM 31.9450 -107.9522 291° West 439 505 37,900 -49 Descending Albuquerque Center
Wed 09:41:44 PM 31.9897 -108.0850 292° West 437 503 37,900 49 Level Albuquerque Center
Wed 09:42:46 PM 32.0389 -108.2356 291° West 437 503 38,000 49 Climbing Albuquerque Center
Wed 09:43:47 PM 32.0828 -108.3694 291° West 439 505 38,000  Level Albuquerque Center
Wed 09:44:49 PM 32.1283 -108.5042 292° West 442 509 38,000  Level Albuquerque Center
Wed 09:45:51 PM 32.1719 -108.6397 291° West 444 511 38,000  Level Albuquerque Center
Wed 09:46:52 PM 32.2164 -108.7761 291° West 445 512 38,000  Level Albuquerque Center
Wed 09:47:54 PM 32.2606 -108.9114 291° West 444 511 38,000  Level Albuquerque Center
Wed 09:48:55 PM 32.3042 -109.0478 291° West 446 513 38,000  Level Albuquerque Center
Wed 09:49:57 PM 32.3572 -109.2119 291° West 446 513 38,000 -48 Level Albuquerque Center
Wed 09:50:59 PM 32.4000 -109.3481 290° West 445 512 37,900  Descending Albuquerque Center
Wed 09:52:00 PM 32.4436 -109.4842 291° West 444 511 38,000 49 Climbing Albuquerque Center
Wed 09:53:02 PM 32.4867 -109.6192 291° West 441 507 38,000  Level Albuquerque Center
Wed 09:54:03 PM 32.5322 -109.7594 291° West 454 522 38,000  Level Albuquerque Center
Wed 09:55:05 PM 32.5753 -109.8950 291° West 447 514 38,000  Level Albuquerque Center
Wed 09:56:07 PM 32.6194 -110.0333 291° West 448 516 38,000  Level Albuquerque Center
Wed 09:57:08 PM 32.6708 -110.1992 290° West 449 517 38,000  Level Albuquerque Center
Wed 09:58:10 PM 32.7144 -110.3372 291° West 450 518 38,000  Level Albuquerque Center
Wed 09:59:11 PM 32.7575 -110.4747 290° West 448 516 38,000  Level Albuquerque Center
Wed 10:00:13 PM 32.7997 -110.6128 290° West 447 514 38,000  Level Albuquerque Center
Wed 10:01:15 PM 32.8400 -110.7469 290° West 444 511 38,000  Level Albuquerque Center
Wed 10:02:16 PM 32.8822 -110.8828 290° West 441 507 38,000  Level Albuquerque Center
Wed 10:03:18 PM 32.9328 -111.0464 290° West 438 504 38,000  Level Albuquerque Center
Wed 10:04:19 PM 32.9742 -111.1831 290° West 438 504 38,000  Level Albuquerque Center
Wed 10:05:21 PM 33.0139 -111.3194 289° West 436 502 38,000  Level Albuquerque Center
Wed 10:06:23 PM 33.0553 -111.4533 290° West 431 496 38,000  Level Albuquerque Center
Wed 10:07:24 PM 33.0947 -111.5878 289° West 431 496 38,000  Level Albuquerque Center
Wed 10:08:26 PM 33.1342 -111.7228 289° West 431 496 38,000  Level Albuquerque Center
Wed 10:09:28 PM 33.1744 -111.8583 290° West 431 496 38,000  Level Albuquerque Center
Wed 10:10:29 PM 33.2142 -111.9939 289° West 433 498 38,000  Level Albuquerque Center
Wed 10:11:31 PM 33.2528 -112.1283 289° West 430 495 38,000  Level Albuquerque Center
Wed 10:12:33 PM 33.2994 -112.2900 289° West 427 491 38,000  Level Albuquerque Center
Wed 10:13:34 PM 33.3386 -112.4258 289° West 431 496 38,000  Level Albuquerque Center
Wed 10:14:37 PM 33.3781 -112.5614 289° West 431 496 38,000 -48 Level Albuquerque Center
Wed 10:15:38 PM 33.4203 -112.7089 289° West 430 495 37,900 -49 Descending Albuquerque Center
Wed 10:16:39 PM 33.4581 -112.8447 288° West 432 497 37,900  Level Albuquerque Center
Wed 10:17:41 PM 33.4842 -112.9833 283° West 431 496 37,900  Level Albuquerque Center
Wed 10:18:42 PM 33.5114 -113.1203 283° West 426 490 37,900  Level Albuquerque Center
Wed 10:19:44 PM 33.5364 -113.2575 282° West 424 488 37,900  Level Albuquerque Center
Wed 10:20:46 PM 33.5614 -113.3919 283° West 418 481 37,900  Level Albuquerque Center
Wed 10:21:47 PM 33.5875 -113.5264 283° West 417 480 37,900 49 Level Albuquerque Center
Wed 10:22:49 PM 33.6167 -113.6806 283° West 415 478 38,000 49 Climbing Albuquerque Center
Wed 10:23:50 PM 33.6411 -113.8183 282° West 420 483 38,000  Level Albuquerque Center
Wed 10:24:52 PM 33.6656 -113.9542 282° West 419 482 38,000  Level Albuquerque Center
Wed 10:25:54 PM 33.6917 -114.0911 283° West 420 483 38,000 -49 Level Albuquerque Center
Wed 10:26:55 PM 33.7175 -114.2319 282° West 416 479 37,900  Descending Albuquerque Center
Wed 10:27:57 PM 33.7400 -114.3672 281° West 415 478 38,000  Climbing Albuquerque Center
Wed 10:28:30 PM 33.7592 -114.4569 284° West 419 482 37,900 -63 Descending Los Angeles Center
Wed 10:29:32 PM 33.7778 -114.5939 279° West 417 480 37,900  Level Los Angeles Center
Wed 10:30:33 PM 33.7858 -114.7325 274° West 418 481 37,900 341 Level Los Angeles Center
Wed 10:31:35 PM 33.7914 -114.8717 273° West 418 481 38,600 919 Climbing Los Angeles Center
Wed 10:32:37 PM 33.8003 -115.0075 275° West 412 474 39,800 634 Climbing Los Angeles Center
Wed 10:33:38 PM 33.8089 -115.1706 274° West 409 471 39,900 49 Climbing Los Angeles Center
Wed 10:34:40 PM 33.8161 -115.3069 274° West 410 472 39,900  Level Los Angeles Center
Wed 10:35:42 PM 33.8253 -115.4439 275° West 413 475 39,900  Level Los Angeles Center
Wed 10:36:44 PM 33.8644 -115.5789 289° West 429 494 39,900  Level Los Angeles Center
Wed 10:37:46 PM 33.9058 -115.7117 291° West 427 491 39,900  Level Los Angeles Center
Wed 10:38:47 PM 33.9467 -115.8392 291° West 416 479 39,900  Level Los Angeles Center
Wed 10:39:49 PM 33.9950 -115.9914 291° West 409 471 39,900  Level Los Angeles Center
Wed 10:40:51 PM 34.0372 -116.1219 291° West 416 479 39,900  Level Los Angeles Center
Wed 10:41:53 PM 34.0781 -116.2511 291° West 416 479 39,900  Level Los Angeles Center
Wed 10:42:54 PM 34.1186 -116.3806 291° West 415 478 39,900 49 Level Los Angeles Center
Wed 10:43:56 PM 34.1583 -116.5100 290° West 423 487 40,000 48 Climbing Los Angeles Center
Wed 10:44:58 PM 34.2008 -116.6447 291° West 431 496 40,000  Level Los Angeles Center
Wed 10:46:00 PM 34.2489 -116.8014 290° West 416 479 40,000  Level Los Angeles Center
Wed 10:47:02 PM 34.2894 -116.9308 291° West 412 474 40,000  Level Los Angeles Center
Wed 10:48:03 PM 34.3292 -117.0617 290° West 414 476 40,000  Level Los Angeles Center
Wed 10:49:05 PM 34.3681 -117.1886 290° West 416 479 40,000  Level Los Angeles Center
Wed 10:50:07 PM 34.4094 -117.3250 290° West 417 480 40,000  Level Los Angeles Center
Wed 10:51:09 PM 34.4503 -117.4586 290° West 420 483 40,000  Level Los Angeles Center
Wed 10:52:10 PM 34.4911 -117.5964 290° West 428 493 40,000  Level Los Angeles Center
Wed 10:53:12 PM 34.5314 -117.7322 290° West 429 494 40,000  Level Los Angeles Center
Wed 10:54:14 PM 34.5775 -117.8894 290° West 415 478 40,000  Level Los Angeles Center
Wed 10:55:16 PM 34.6189 -118.0231 291° West 422 486 40,000  Level Los Angeles Center
Wed 10:56:18 PM 34.6864 -118.1453 304° West 440 506 40,000  Level Los Angeles Center
Wed 10:57:19 PM 34.7656 -118.2600 310° West 441 507 40,000  Level Los Angeles Center
Wed 10:58:21 PM 34.8456 -118.3747 310° West 443 510 40,000 -48 Level Los Angeles Center
Wed 10:59:23 PM 34.9208 -118.5000 306° West 448 516 39,900 -48 Descending Los Angeles Center
Wed 11:00:25 PM 34.9783 -118.6242 300° West 422 486 39,900 48 Level Los Angeles Center
Wed 11:01:27 PM 35.0325 -118.7544 297° West 427 491 40,000  Climbing Los Angeles Center
Wed 11:02:29 PM 35.0994 -118.9089 298° West 430 495 39,900 -49 Descending Los Angeles Center
Wed 11:03:30 PM 35.1556 -119.0356 298° West 428 493 39,900  Level Los Angeles Center
Wed 11:04:32 PM 35.2119 -119.1647 298° West 432 497 39,900  Level Los Angeles Center
Wed 11:05:34 PM 35.2667 -119.2939 297° West 430 495 39,900  Level Los Angeles Center
Wed 11:06:36 PM 35.3211 -119.4228 297° West 432 497 39,900  Level Los Angeles Center
Wed 11:07:38 PM 35.3761 -119.5506 298° West 430 495 39,900  Level Los Angeles Center
Wed 11:08:40 PM 35.4314 -119.6786 298° West 427 491 39,900  Level Los Angeles Center
Wed 11:09:37 PM 35.4836 -119.8072 297° West 432 497 39,900  Level Oakland Center
Wed 11:10:38 PM 35.5389 -119.9364 298° West 432 497 39,900  Level Oakland Center
Wed 11:11:45 PM 35.6056 -120.0925 298° West 432 497 39,900  Level Los Angeles Center
Wed 11:12:41 PM 35.6581 -120.2219 297° West 432 497 39,900  Level Oakland Center
Wed 11:13:42 PM 35.7117 -120.3519 297° West 431 496 39,900 -246 Level Oakland Center
Wed 11:14:43 PM 35.7778 -120.4750 304° West 438 504 39,400 -683 Descending Oakland Center
Wed 11:15:45 PM 35.8597 -120.5856 312° West 439 505 38,500 -1,415 Descending Oakland Center
Wed 11:16:46 PM 35.9397 -120.6958 312° West 434 499 36,500 -2,459 Descending Oakland Center
Wed 11:17:47 PM 36.0200 -120.8072 312° West 434 499 33,500 -3,049 Descending Oakland Center
Wed 11:18:48 PM 36.1161 -120.9417 312° West 434 499 30,300 -2,754 Descending Oakland Center
Wed 11:19:49 PM 36.1925 -121.0481 312° West 413 475 27,900 -2,213 Descending Oakland Center
Wed 11:20:50 PM 36.2650 -121.1500 311° West 396 456 25,800 -2,049 Descending Oakland Center
Wed 11:21:52 PM 36.3331 -121.2489 311° West 379 436 23,700 -2,000 Descending Oakland Center
Wed 11:22:53 PM 36.4006 -121.3411 312° West 360 414 21,700 -2,852 Descending Oakland Center
Wed 11:23:54 PM 36.4875 -121.4056 329° Northwest 363 418 17,900 -3,590 Descending Oakland Center
Wed 11:24:55 PM 36.5928 -121.4494 341° North 392 451 14,400 -2,754 Descending Oakland Center
Wed 11:25:56 PM 36.6933 -121.4961 340° North 377 434 12,300 -2,066 Descending Oakland Center
Wed 11:26:57 PM 36.7886 -121.5375 341° North 360 414 10,200 -1,463 Descending Oakland Center
Wed 11:27:59 PM 36.8839 -121.5847 338° Northwest 318 366 9,300 -1,220 Descending Oakland Center
Wed 11:29:00 PM 36.9608 -121.6197 340° North 299 344 7,700 -1,574 Descending Oakland Center
Wed 11:30:01 PM 37.0319 -121.6511 341° North 279 321 6,100 -1,328 Descending Oakland Center
Wed 11:31:02 PM 37.0983 -121.6844 338° Northwest 263 303 5,000 -641 Descending Oakland Center
Wed 11:31:44 PM 37.1500 -121.7000 347° North 222 255 5,000  Level Northern Cal TRACON
Wed 11:32:03 PM 37.1611 -121.7131 317° Northwest 247 284 5,000 -750 Level Oakland Center
Wed 11:33:04 PM 37.2025 -121.7494 325° Northwest 220 253 4,000 -1,033 Descending Oakland Center
Wed 11:34:05 PM 37.2419 -121.8008 314° West 209 241 2,900 -927 Descending Oakland Center
Wed 11:35:07 PM 37.2817 -121.8439 319° Northwest 198 228 2,100 -878 Descending Oakland Center
Wed 11:36:08 PM 37.3125 -121.8775 319° Northwest 170 196 1,100 -787 Descending Oakland Center
Wed 11:37:09 PM 37.3400 -121.9067 320° Northwest 148 170 500 -590 Descending Oakland Center
Wed 11:39:00 PM 37.3500 -121.9167 North  Level FlightAware Approximate
Wed 11:46:00 PM 37.3627 -121.9291 North  Level Estimated

Login

Don't have an account? Register now (free) for customized features, flight alerts, and more!